Terminal Aerodrome Forecast
Issued by NWS Corpus Christi, TX

Home | Current Version | Previous Version | Text Only | Print | Product List | Glossary On
Versions: 1 2 3 4 5 6 7 8 9 10 11 12 13 14 15 16
000
FTUS44 KCRP 301126
TAFCRP
TAF
KCRP 301126Z 3012/3112 07010KT P6SM VCSH SCT025 BKN060 OVC100
      TEMPO 3012/3016 3SM SHRA SCT006 BKN025 OVC060
     FM301600 06012KT P6SM VCSH BKN030 OVC050
      TEMPO 3017/3020 VRB20G30KT 3SM TSRA BKN020CB OVC040
     FM302000 09014G18KT P6SM VCSH SCT035 BKN100
     FM310400 09009KT P6SM BKN025 OVC150
     FM311000 36004KT P6SM VCSH BKN020 OVC100=

USA.gov is the U.S. government's official web portal to all federal, state and local government web resources and services.